Buoy 44863

sailwx.info

Track history (hours):
 
Tides and Currents Weather Stations Pressure Air Temp Water Temp Dewpoint Dewpoint Depression Visibility Wind Speed Wind Dir Waves Ship Positions

Drifting buoy 44863

Last reported at 2017-Nov-15 18:00 UTC. Time now 2017-Dec-16 11:10 UTC.
Position N 29°14' W 077°00'.
Warning: this ship's position is 30 days out of date.

Barometer 1012.4 mb
Water temperature 25.1 ° C

Date/timePositionNaut miles runAvg speedWind from/ knotsBaromVisibWave heightAir tempDewpointWater temp
2017-Nov-15 18:00N 29°14' W 077°00'3 0.3 1012.4 25.1
2017-Nov-15 06:00N 29°11' W 076°59'1 0.4 1012.0 25.5
2017-Nov-15 04:00N 29°11' W 076°59'2 0.2 1013.0 25.5
2017-Nov-14 17:00N 29°09' W 076°58'1 0.5 1014.4 25.6
2017-Nov-14 16:00N 29°09' W 076°59'3 0.6 1015.1 25.6
2017-Nov-14 11:00N 29°07' W 077°01'1 0.6 1015.0 25.6
2017-Nov-14 09:00N 29°05' W 077°01'0 0.0 1014.7 25.6
2017-Nov-14 08:00N 29°05' W 077°01'2 0.4 1014.8 25.6
2017-Nov-14 03:00N 29°04' W 076°59'1 0.3 1016.4 25.7
2017-Nov-14 01:00N 29°03' W 076°59'0 0.0 1016.7 25.7
2017-Nov-13 23:00N 29°03' W 076°59'0 0.0 1016.5 25.7
2017-Nov-13 21:00N 29°03' W 076°59'2 0.3 1017.1 25.8
2017-Nov-13 12:00N 29°02' W 077°02'1 0.8 1018.7 25.7
2017-Nov-13 11:00N 29°01' W 077°02'1 0.4 1018.6 25.7
2017-Nov-13 09:00N 29°01' W 077°03'1 0.6 1018.1 25.7
2017-Nov-13 08:00N 29°00' W 077°03'2 0.8 1018.6 25.7
2017-Nov-13 05:00N 28°58' W 077°03'4 0.5 1020.2 25.7
2017-Nov-12 21:00N 28°56' W 076°59'1 0.2 1019.9 25.9
2017-Nov-12 18:00N 28°56' W 076°59'1 0.2 1020.7 25.9
2017-Nov-12 14:00N 28°56' W 076°59'1 0.4 1022.6 25.9
2017-Nov-12 12:00N 28°56' W 076°59'1 0.7 1021.9 25.9
2017-Nov-12 10:00N 28°55' W 077°00'1 0.4 1020.7 25.9
2017-Nov-12 08:00N 28°54' W 076°59'3 0.7 1020.3 25.9
2017-Nov-12 04:00N 28°52' W 076°58'3 0.8 1021.1 26.0
2017-Nov-12 00:00N 28°50' W 076°54'2 0.7 1020.7 26.1
2017-Nov-11 21:00N 28°51' W 076°52'5 0.3 1019.5 26.2
2017-Nov-11 06:00N 28°50' W 076°46'3 0.5 1017.6 26.3
2017-Nov-11 01:00N 28°50' W 076°43'2 0.5 1018.2 26.3
2017-Nov-10 20:00N 28°52' W 076°41'2 0.2 1015.7 26.4
2017-Nov-10 13:00N 28°53' W 076°43'1 0.5 1016.0 26.4
2017-Nov-10 12:00N 28°53' W 076°43'0 0.0 1015.4 26.4
2017-Nov-10 11:00N 28°53' W 076°43'0 0.0 1015.0 26.4
2017-Nov-10 10:00N 28°53' W 076°43'1 0.6 1014.5 26.4
2017-Nov-10 09:00N 28°52' W 076°43'0 0.0 1014.1 26.4
2017-Nov-10 08:00N 28°52' W 076°43'1 0.3 1014.2 26.4
2017-Nov-10 06:00N 28°52' W 076°43'0 0.0 1014.7 26.4
2017-Nov-10 05:00N 28°52' W 076°43'0 0.0 1014.9 26.4
2017-Nov-10 04:00N 28°52' W 076°43'1 0.6 1015.2 26.4
2017-Nov-10 03:00N 28°51' W 076°43'1 0.5 1015.5 26.4
2017-Nov-10 02:00N 28°51' W 076°43'1 0.6 1015.3 26.5
2017-Nov-10 01:00N 28°50' W 076°43'1 0.5 1015.1 26.5
2017-Nov-10 00:00N 28°50' W 076°42'1 0.6 1014.9 26.6
2017-Nov-09 23:00N 28°50' W 076°42'1 0.5 1014.6 26.7
2017-Nov-09 22:00N 28°50' W 076°41'1 0.5 1014.5 26.8
2017-Nov-09 21:00N 28°50' W 076°41'0 0.0 1014.5 27.2
2017-Nov-09 20:00N 28°50' W 076°41'1 0.5 1014.3 27.5
2017-Nov-09 19:00N 28°50' W 076°40'0 0.0 1014.5 27.8
2017-Nov-09 18:00N 28°50' W 076°40'1 0.5 1014.5 27.6
2017-Nov-09 17:00N 28°50' W 076°40'0 0.0 1015.2 27.4
2017-Nov-09 15:00N 28°50' W 076°40'1 0.5 1016.2 26.7
2017-Nov-09 14:00N 28°50' W 076°39'1 0.6 1016.5 26.6
2017-Nov-09 13:00N 28°49' W 076°39'0 0.0 1016.1 26.5
2017-Nov-09 12:00N 28°49' W 076°39'1 0.6 1015.7 26.4
2017-Nov-09 11:00N 28°49' W 076°39'1 0.5 1015.2 26.4
2017-Nov-09 10:00N 28°49' W 076°38'1 0.6 1014.6 26.4
2017-Nov-09 09:00N 28°48' W 076°38'1 0.6 1014.8 26.4
2017-Nov-09 08:00N 28°47' W 076°38'0 0.0 1015.2 26.4
2017-Nov-09 07:00N 28°47' W 076°38'0 0.0 1015.2 26.4
2017-Nov-09 06:00N 28°47' W 076°38'1 0.3 1015.6 26.4
2017-Nov-09 04:00N 28°47' W 076°38'1 0.6 1015.4 26.4
2017-Nov-09 03:00N 28°46' W 076°38'1 0.6 1016.0 26.5
2017-Nov-09 02:00N 28°46' W 076°38'0 0.0 1015.9 26.5
2017-Nov-09 01:00N 28°46' W 076°38'1 0.8 1015.5 26.5
2017-Nov-09 00:00N 28°45' W 076°38'1 0.8 1015.1 26.5
2017-Nov-08 23:00N 28°44' W 076°37'0 0.0 1014.9 26.5
2017-Nov-08 22:00N 28°44' W 076°37'1 0.8 1014.6 26.9
2017-Nov-08 21:00N 28°44' W 076°37'1 0.5 1014.4 27.1
2017-Nov-08 20:00N 28°44' W 076°36'1 0.5 1014.3 27.2
2017-Nov-08 19:00N 28°44' W 076°35'1 0.5 1014.4 27.3
2017-Nov-08 18:00N 28°44' W 076°35'1 0.5 1014.9 27.1
2017-Nov-08 17:00N 28°44' W 076°34'1 0.6 1015.7 26.9
2017-Nov-08 16:00N 28°44' W 076°34'1 0.5 1016.2 26.7
2017-Nov-08 15:00N 28°44' W 076°34'0 0.0 1016.5 26.6
2017-Nov-08 14:00N 28°44' W 076°34'1 0.5 1016.2 26.6
2017-Nov-08 13:00N 28°44' W 076°33'1 0.6 1015.8 26.5
2017-Nov-08 12:00N 28°45' W 076°33'0 0.0 1015.9 26.4
2017-Nov-08 11:00N 28°45' W 076°33'0 0.0 1015.7 26.4
2017-Nov-08 10:00N 28°45' W 076°33'0 0.0 1015.4 26.4
2017-Nov-08 09:00N 28°45' W 076°33'1 0.6 1014.5 26.4
2017-Nov-08 08:00N 28°44' W 076°33'0 0.0 1014.3 26.4
2017-Nov-08 07:00N 28°44' W 076°33'0 0.0 1014.4 26.4
2017-Nov-08 06:00N 28°44' W 076°33'1 0.8 1014.9 26.5
2017-Nov-08 05:00N 28°44' W 076°32'0 0.0 1014.9 26.5
2017-Nov-08 04:00N 28°44' W 076°32'1 0.8 1015.5 26.5
2017-Nov-08 03:00N 28°43' W 076°32'1 0.4 1015.9 26.6
2017-Nov-08 01:00N 28°43' W 076°31'1 0.5 1015.6 26.7
2017-Nov-08 00:00N 28°43' W 076°31'1 0.5 1015.7 26.7
2017-Nov-07 23:00N 28°43' W 076°30'1 0.8 1015.3 26.8
2017-Nov-07 22:00N 28°42' W 076°29'1 0.5 1015.2 27.1
2017-Nov-07 21:00N 28°42' W 076°29'1 0.5 1014.9 27.2
2017-Nov-07 20:00N 28°42' W 076°28'1 0.5 1014.9 27.4
2017-Nov-07 19:00N 28°42' W 076°28'1 1.1 1015.1 27.4
2017-Nov-07 18:00N 28°42' W 076°26'1 0.6 1015.6 27.2
2017-Nov-07 16:00N 28°43' W 076°25'1 0.8 1017.1 26.7
2017-Nov-07 15:00N 28°43' W 076°25'1 0.5 1017.7 26.6
2017-Nov-07 14:00N 28°43' W 076°24'1 0.8 1017.8 26.5
2017-Nov-07 13:00N 28°44' W 076°23'0 0.0 1017.3 26.4
2017-Nov-07 12:00N 28°44' W 076°23'1 0.6 1017.0 26.4
2017-Nov-07 11:00N 28°44' W 076°23'0 0.0 1016.5 26.4
2017-Nov-07 10:00N 28°44' W 076°23'0 0.0 1016.1 26.4
2017-Nov-07 09:00N 28°44' W 076°23'0 0.0 1015.9 26.4
2017-Nov-07 08:00N 28°44' W 076°23'0 0.0 1015.9 26.4
2017-Nov-07 07:00N 28°44' W 076°23'1 0.8 1016.1 26.4
2017-Nov-07 06:00N 28°44' W 076°23'0 0.0 1016.3 26.4
2017-Nov-07 05:00N 28°44' W 076°23'1 0.8 1016.7 26.4
2017-Nov-07 04:00N 28°43' W 076°22'1 0.5 1017.1 26.4
2017-Nov-07 03:00N 28°43' W 076°22'1 1.2 1017.3 26.5
2017-Nov-07 02:00N 28°43' W 076°20'1 0.5 1017.0 26.5
2017-Nov-07 01:00N 28°43' W 076°20'1 0.5 1016.5 26.5
2017-Nov-07 00:00N 28°43' W 076°19'1 0.5 1016.3 26.5
2017-Nov-06 23:00N 28°43' W 076°19'1 0.5 1016.2 26.5
2017-Nov-06 22:00N 28°43' W 076°18'1 0.5 1015.7 26.6
2017-Nov-06 21:00N 28°43' W 076°17'1 0.5 1015.8 26.7
2017-Nov-06 20:00N 28°43' W 076°17'1 0.8 1015.9 26.8
2017-Nov-06 19:00N 28°43' W 076°16'1 1.1 1016.0 26.8
2017-Nov-06 18:00N 28°43' W 076°15'1 0.5 1016.4 26.8
2017-Nov-06 17:00N 28°43' W 076°14'1 0.5 1016.7 26.8
2017-Nov-06 16:00N 28°43' W 076°14'1 0.8 1017.4 26.7
2017-Nov-06 15:00N 28°44' W 076°13'1 0.5 1017.6 26.6
2017-Nov-06 14:00N 28°44' W 076°13'1 0.6 1017.4 26.5
2017-Nov-06 13:00N 28°44' W 076°13'1 0.5 1017.2 26.4
2017-Nov-06 12:00N 28°44' W 076°12'1 0.5 1016.6 26.3
2017-Nov-06 11:00N 28°44' W 076°11'1 0.6 1016.3 26.3
2017-Nov-06 10:00N 28°45' W 076°11'0 0.0 1015.9 26.3
2017-Nov-06 09:00N 28°45' W 076°11'1 0.8 1015.4 26.3
2017-Nov-06 08:00N 28°44' W 076°11'0 0.0 1015.3 26.3
2017-Nov-06 07:00N 28°44' W 076°11'1 0.5 1015.4 26.3
2017-Nov-06 06:00N 28°44' W 076°10'1 0.8 1015.6 26.3
2017-Nov-06 05:00N 28°44' W 076°10'1 0.5 1016.1 26.4
2017-Nov-06 04:00N 28°44' W 076°09'1 0.8 1016.3 26.4
2017-Nov-06 03:00N 28°43' W 076°08'1 1.1 1016.4 26.4
2017-Nov-06 02:00N 28°43' W 076°07'1 1.1 1016.2 26.4
2017-Nov-06 01:00N 28°43' W 076°06'1 1.1 1015.9 26.4
2017-Nov-06 00:00N 28°43' W 076°05'1 0.5 1015.5 26.4
2017-Nov-05 23:00N 28°43' W 076°04'1 1.1 1015.0 26.3
2017-Nov-05 22:00N 28°43' W 076°03'1 1.1 1014.5 26.4
2017-Nov-05 21:00N 28°43' W 076°02'1 1.1 1014.6 26.5
2017-Nov-05 20:00N 28°43' W 076°01'2 0.8 1014.3 26.6
2017-Nov-05 18:00N 28°44' W 075°59'   1014.5 26.5
Track history (hours):
 
Tides and Currents Weather Stations Pressure Air Temp Water Temp Dewpoint Dewpoint Depression Visibility Wind Speed Wind Dir Waves Ship Positions

Drifting buoy 44863

Last reported at 2017-Nov-15 18:00 UTC. Time now 2017-Dec-16 11:10 UTC.
Position N 29°14' W 077°00'.
Warning: this ship's position is 30 days out of date.

Barometer 1012.4 mb
Water temperature 25.1 ° C

Date/timePositionNaut miles runAvg speedWind from/ knotsBaromVisibWave heightAir tempDewpointWater temp
2017-Nov-15 18:00N 29°14' W 077°00'3 0.3 1012.4 25.1
2017-Nov-15 06:00N 29°11' W 076°59'1 0.4 1012.0 25.5
2017-Nov-15 04:00N 29°11' W 076°59'2 0.2 1013.0 25.5
2017-Nov-14 17:00N 29°09' W 076°58'1 0.5 1014.4 25.6
2017-Nov-14 16:00N 29°09' W 076°59'3 0.6 1015.1 25.6
2017-Nov-14 11:00N 29°07' W 077°01'1 0.6 1015.0 25.6
2017-Nov-14 09:00N 29°05' W 077°01'0 0.0 1014.7 25.6
2017-Nov-14 08:00N 29°05' W 077°01'2 0.4 1014.8 25.6
2017-Nov-14 03:00N 29°04' W 076°59'1 0.3 1016.4 25.7
2017-Nov-14 01:00N 29°03' W 076°59'0 0.0 1016.7 25.7
2017-Nov-13 23:00N 29°03' W 076°59'0 0.0 1016.5 25.7
2017-Nov-13 21:00N 29°03' W 076°59'2 0.3 1017.1 25.8
2017-Nov-13 12:00N 29°02' W 077°02'1 0.8 1018.7 25.7
2017-Nov-13 11:00N 29°01' W 077°02'1 0.4 1018.6 25.7
2017-Nov-13 09:00N 29°01' W 077°03'1 0.6 1018.1 25.7
2017-Nov-13 08:00N 29°00' W 077°03'2 0.8 1018.6 25.7
2017-Nov-13 05:00N 28°58' W 077°03'4 0.5 1020.2 25.7
2017-Nov-12 21:00N 28°56' W 076°59'1 0.2 1019.9 25.9
2017-Nov-12 18:00N 28°56' W 076°59'1 0.2 1020.7 25.9
2017-Nov-12 14:00N 28°56' W 076°59'1 0.4 1022.6 25.9
2017-Nov-12 12:00N 28°56' W 076°59'1 0.7 1021.9 25.9
2017-Nov-12 10:00N 28°55' W 077°00'1 0.4 1020.7 25.9
2017-Nov-12 08:00N 28°54' W 076°59'3 0.7 1020.3 25.9
2017-Nov-12 04:00N 28°52' W 076°58'3 0.8 1021.1 26.0
2017-Nov-12 00:00N 28°50' W 076°54'2 0.7 1020.7 26.1
2017-Nov-11 21:00N 28°51' W 076°52'5 0.3 1019.5 26.2
2017-Nov-11 06:00N 28°50' W 076°46'3 0.5 1017.6 26.3
2017-Nov-11 01:00N 28°50' W 076°43'2 0.5 1018.2 26.3
2017-Nov-10 20:00N 28°52' W 076°41'2 0.2 1015.7 26.4
2017-Nov-10 13:00N 28°53' W 076°43'1 0.5 1016.0 26.4
2017-Nov-10 12:00N 28°53' W 076°43'0 0.0 1015.4 26.4
2017-Nov-10 11:00N 28°53' W 076°43'0 0.0 1015.0 26.4
2017-Nov-10 10:00N 28°53' W 076°43'1 0.6 1014.5 26.4
2017-Nov-10 09:00N 28°52' W 076°43'0 0.0 1014.1 26.4
2017-Nov-10 08:00N 28°52' W 076°43'1 0.3 1014.2 26.4
2017-Nov-10 06:00N 28°52' W 076°43'0 0.0 1014.7 26.4
2017-Nov-10 05:00N 28°52' W 076°43'0 0.0 1014.9 26.4
2017-Nov-10 04:00N 28°52' W 076°43'1 0.6 1015.2 26.4
2017-Nov-10 03:00N 28°51' W 076°43'1 0.5 1015.5 26.4
2017-Nov-10 02:00N 28°51' W 076°43'1 0.6 1015.3 26.5
2017-Nov-10 01:00N 28°50' W 076°43'1 0.5 1015.1 26.5
2017-Nov-10 00:00N 28°50' W 076°42'1 0.6 1014.9 26.6
2017-Nov-09 23:00N 28°50' W 076°42'1 0.5 1014.6 26.7
2017-Nov-09 22:00N 28°50' W 076°41'1 0.5 1014.5 26.8
2017-Nov-09 21:00N 28°50' W 076°41'0 0.0 1014.5 27.2
2017-Nov-09 20:00N 28°50' W 076°41'1 0.5 1014.3 27.5
2017-Nov-09 19:00N 28°50' W 076°40'0 0.0 1014.5 27.8
2017-Nov-09 18:00N 28°50' W 076°40'1 0.5 1014.5 27.6
2017-Nov-09 17:00N 28°50' W 076°40'0 0.0 1015.2 27.4
2017-Nov-09 15:00N 28°50' W 076°40'1 0.5 1016.2 26.7
2017-Nov-09 14:00N 28°50' W 076°39'1 0.6 1016.5 26.6
2017-Nov-09 13:00N 28°49' W 076°39'0 0.0 1016.1 26.5
2017-Nov-09 12:00N 28°49' W 076°39'1 0.6 1015.7 26.4
2017-Nov-09 11:00N 28°49' W 076°39'1 0.5 1015.2 26.4
2017-Nov-09 10:00N 28°49' W 076°38'1 0.6 1014.6 26.4
2017-Nov-09 09:00N 28°48' W 076°38'1 0.6 1014.8 26.4
2017-Nov-09 08:00N 28°47' W 076°38'0 0.0 1015.2 26.4
2017-Nov-09 07:00N 28°47' W 076°38'0 0.0 1015.2 26.4
2017-Nov-09 06:00N 28°47' W 076°38'1 0.3 1015.6 26.4
2017-Nov-09 04:00N 28°47' W 076°38'1 0.6 1015.4 26.4
2017-Nov-09 03:00N 28°46' W 076°38'1 0.6 1016.0 26.5
2017-Nov-09 02:00N 28°46' W 076°38'0 0.0 1015.9 26.5
2017-Nov-09 01:00N 28°46' W 076°38'1 0.8 1015.5 26.5
2017-Nov-09 00:00N 28°45' W 076°38'1 0.8 1015.1 26.5
2017-Nov-08 23:00N 28°44' W 076°37'0 0.0 1014.9 26.5
2017-Nov-08 22:00N 28°44' W 076°37'1 0.8 1014.6 26.9
2017-Nov-08 21:00N 28°44' W 076°37'1 0.5 1014.4 27.1
2017-Nov-08 20:00N 28°44' W 076°36'1 0.5 1014.3 27.2
2017-Nov-08 19:00N 28°44' W 076°35'1 0.5 1014.4 27.3
2017-Nov-08 18:00N 28°44' W 076°35'1 0.5 1014.9 27.1
2017-Nov-08 17:00N 28°44' W 076°34'1 0.6 1015.7 26.9
2017-Nov-08 16:00N 28°44' W 076°34'1 0.5 1016.2 26.7
2017-Nov-08 15:00N 28°44' W 076°34'0 0.0 1016.5 26.6
2017-Nov-08 14:00N 28°44' W 076°34'1 0.5 1016.2 26.6
2017-Nov-08 13:00N 28°44' W 076°33'1 0.6 1015.8 26.5
2017-Nov-08 12:00N 28°45' W 076°33'0 0.0 1015.9 26.4
2017-Nov-08 11:00N 28°45' W 076°33'0 0.0 1015.7 26.4
2017-Nov-08 10:00N 28°45' W 076°33'0 0.0 1015.4 26.4
2017-Nov-08 09:00N 28°45' W 076°33'1 0.6 1014.5 26.4
2017-Nov-08 08:00N 28°44' W 076°33'0 0.0 1014.3 26.4
2017-Nov-08 07:00N 28°44' W 076°33'0 0.0 1014.4 26.4
2017-Nov-08 06:00N 28°44' W 076°33'1 0.8 1014.9 26.5
2017-Nov-08 05:00N 28°44' W 076°32'0 0.0 1014.9 26.5
2017-Nov-08 04:00N 28°44' W 076°32'1 0.8 1015.5 26.5
2017-Nov-08 03:00N 28°43' W 076°32'1 0.4 1015.9 26.6
2017-Nov-08 01:00N 28°43' W 076°31'1 0.5 1015.6 26.7
2017-Nov-08 00:00N 28°43' W 076°31'1 0.5 1015.7 26.7
2017-Nov-07 23:00N 28°43' W 076°30'1 0.8 1015.3 26.8
2017-Nov-07 22:00N 28°42' W 076°29'1 0.5 1015.2 27.1
2017-Nov-07 21:00N 28°42' W 076°29'1 0.5 1014.9 27.2
2017-Nov-07 20:00N 28°42' W 076°28'1 0.5 1014.9 27.4
2017-Nov-07 19:00N 28°42' W 076°28'1 1.1 1015.1 27.4
2017-Nov-07 18:00N 28°42' W 076°26'1 0.6 1015.6 27.2
2017-Nov-07 16:00N 28°43' W 076°25'1 0.8 1017.1 26.7
2017-Nov-07 15:00N 28°43' W 076°25'1 0.5 1017.7 26.6
2017-Nov-07 14:00N 28°43' W 076°24'1 0.8 1017.8 26.5
2017-Nov-07 13:00N 28°44' W 076°23'0 0.0 1017.3 26.4
2017-Nov-07 12:00N 28°44' W 076°23'1 0.6 1017.0 26.4
2017-Nov-07 11:00N 28°44' W 076°23'0 0.0 1016.5 26.4
2017-Nov-07 10:00N 28°44' W 076°23'0 0.0 1016.1 26.4
2017-Nov-07 09:00N 28°44' W 076°23'0 0.0 1015.9 26.4
2017-Nov-07 08:00N 28°44' W 076°23'0 0.0 1015.9 26.4
2017-Nov-07 07:00N 28°44' W 076°23'1 0.8 1016.1 26.4
2017-Nov-07 06:00N 28°44' W 076°23'0 0.0 1016.3 26.4
2017-Nov-07 05:00N 28°44' W 076°23'1 0.8 1016.7 26.4
2017-Nov-07 04:00N 28°43' W 076°22'1 0.5 1017.1 26.4
2017-Nov-07 03:00N 28°43' W 076°22'1 1.2 1017.3 26.5
2017-Nov-07 02:00N 28°43' W 076°20'1 0.5 1017.0 26.5
2017-Nov-07 01:00N 28°43' W 076°20'1 0.5 1016.5 26.5
2017-Nov-07 00:00N 28°43' W 076°19'1 0.5 1016.3 26.5
2017-Nov-06 23:00N 28°43' W 076°19'1 0.5 1016.2 26.5
2017-Nov-06 22:00N 28°43' W 076°18'1 0.5 1015.7 26.6
2017-Nov-06 21:00N 28°43' W 076°17'1 0.5 1015.8 26.7
2017-Nov-06 20:00N 28°43' W 076°17'1 0.8 1015.9 26.8
2017-Nov-06 19:00N 28°43' W 076°16'1 1.1 1016.0 26.8
2017-Nov-06 18:00N 28°43' W 076°15'1 0.5 1016.4 26.8
2017-Nov-06 17:00N 28°43' W 076°14'1 0.5 1016.7 26.8
2017-Nov-06 16:00N 28°43' W 076°14'1 0.8 1017.4 26.7
2017-Nov-06 15:00N 28°44' W 076°13'1 0.5 1017.6 26.6
2017-Nov-06 14:00N 28°44' W 076°13'1 0.6 1017.4 26.5
2017-Nov-06 13:00N 28°44' W 076°13'1 0.5 1017.2 26.4
2017-Nov-06 12:00N 28°44' W 076°12'1 0.5 1016.6 26.3
2017-Nov-06 11:00N 28°44' W 076°11'1 0.6 1016.3 26.3
2017-Nov-06 10:00N 28°45' W 076°11'0 0.0 1015.9 26.3
2017-Nov-06 09:00N 28°45' W 076°11'1 0.8 1015.4 26.3
2017-Nov-06 08:00N 28°44' W 076°11'0 0.0 1015.3 26.3
2017-Nov-06 07:00N 28°44' W 076°11'1 0.5 1015.4 26.3
2017-Nov-06 06:00N 28°44' W 076°10'1 0.8 1015.6 26.3
2017-Nov-06 05:00N 28°44' W 076°10'1 0.5 1016.1 26.4
2017-Nov-06 04:00N 28°44' W 076°09'1 0.8 1016.3 26.4
2017-Nov-06 03:00N 28°43' W 076°08'1 1.1 1016.4 26.4
2017-Nov-06 02:00N 28°43' W 076°07'1 1.1 1016.2 26.4
2017-Nov-06 01:00N 28°43' W 076°06'1 1.1 1015.9 26.4
2017-Nov-06 00:00N 28°43' W 076°05'1 0.5 1015.5 26.4
2017-Nov-05 23:00N 28°43' W 076°04'1 1.1 1015.0 26.3
2017-Nov-05 22:00N 28°43' W 076°03'1 1.1 1014.5 26.4
2017-Nov-05 21:00N 28°43' W 076°02'1 1.1 1014.6 26.5
2017-Nov-05 20:00N 28°43' W 076°01'2 0.8 1014.3 26.6
2017-Nov-05 18:00N 28°44' W 075°59'   1014.5 26.5

Dump ship's entire track history